ADDS METAR Data INFO
IDs: Format: Raw Decoded Include TAF

Data at: 0350 UTC 19 Jul 2018

KOJC 190253Z AUTO 10006KT 10SM FEW060 SCT075 26/23 A2993 RMK AO2 SLP122 T02610228 53005
KOJC 190153Z 10005KT 10SM BKN050 27/23 A2991 RMK AO2 SLP117 T02670228
KOJC 190053Z 11006KT 10SM FEW085 28/23 A2990 RMK AO2 LTG DSNT S SLP114 T02780228
KOJC 182353Z 11008KT 10SM FEW090 28/23 A2991 RMK AO2 LTG DSNT S AND SW SLP117 60000 T02830228 10294 20267 58006
KOJC 182253Z 11007KT 10SM FEW026 SCT036 SCT047 28/23 A2992 RMK AO2 SLP120 T02830228
KOJC 182153Z 11008KT 10SM FEW029 BKN060 BKN080 28/22 A2992 RMK AO2 RAB00E13 SLP121 P0000 T02830222
KOJC 182053Z 08009KT 10SM FEW027 BKN048 OVC110 28/23 A2993 RMK AO2 SLP124 T02780228 58019
KOJC 182024Z 09010KT 10SM BKN027 OVC038 28/23 A2995 RMK AO2 T02830233
KOJC 181953Z 07009KT 10SM FEW024 SCT032 SCT043 28/23 A2995 RMK AO2 SLP131 T02830228
KOJC 181853Z 08008KT 10SM BKN024 BKN030 OVC036 28/23 A2998 RMK AO2 SLP140 T02780228
KOJC 181827Z 07007KT 10SM BKN018 27/23 A2998 RMK AO2 T02720228
KOJC 181802Z COR 10008KT 10SM BKN018 28/23 A2999 RMK AO2 T02780228
KOJC 181753Z 13009KT 10SM BKN018 BKN024 BKN055 27/23 A2999 RMK AO2 SLP143 T02720228 10272 20211 58011
KOJC 181653Z 11007KT 10SM BKN018 BKN023 OVC034 26/23 A3001 RMK AO2 SLP150 T02610228
KOJC 181620Z 10006KT 10SM BKN016 OVC024 26/22 A3002 RMK AO2 T02560222
KOJC 181553Z VRB04KT 10SM BKN014 25/23 A3002 RMK AO2 SLP154 T02500228
KOJC 181524Z 11007KT 10SM FEW008 BKN014 BKN019 24/23 A3002 RMK AO2 T02440228
KOJC 181453Z 08005KT 10SM OVC011 23/22 A3002 RMK AO2 CIG 007V014 SLP157 T02330222 50004
KOJC 181448Z 06007KT 10SM OVC011 23/22 A3003 RMK AO2 CIG 007V014
KOJC 181404Z 08007KT 10SM BKN007 OVC027 23/22 A3002 RMK AO2 T02330222
KOJC 181353Z COR 09005KT 10SM BKNSCT007 OVC026 23/22 A3002 RMK AO2 SLP156 T02330222
KOJC 181330Z 10005KT 10SM BKN007 BKN085 23/22 A3002 RMK AO2 T02280217
KOJC 181317Z 11006KT 10SM SCT007 SCT085 22/22 A3001 RMK AO2 T02220217
KOJC 181253Z 13005KT 10SM SCT080 22/22 A3001 RMK AO2 SLP153 T02220217
KOJC 181153Z 07003KT 10SM BKN033 21/21 A3001 RMK AO2 SLP154 60002 70129 T02110211 10222 20211 55001
KOJC 181145Z 11003KT 10SM FEW006 BKN033 OVC065 21/21 A3002 RMK AO2 T02110211
KOJC 181053Z AUTO 07003KT 10SM SCT060 BKN090 21/21 A3001 RMK AO2 SLP152 T02110206
KOJC 180953Z AUTO 13004KT 10SM OVC060 21/21 A3002 RMK AO2 RAE07 SLP153 P0001 T02110211
KOJC 180853Z AUTO 12006KT 6SM -RA BR SCT040 BKN055 OVC075 21/21 A3002 RMK AO2 RAB43 SLP153 P0001 60001 T02110206 58010
KOJC 180753Z AUTO 08006KT 10SM BKN049 OVC060 22/21 A3003 RMK AO2 SLP157 T02170206
KOJC 180653Z AUTO 09007KT 10SM SCT049 22/20 A3004 RMK AO2 SLP161 T02170200
KOJC 180553Z AUTO 06006KT 10SM SCT049 SCT055 22/21 A3005 RMK AO2 SLP163 60000 T02170206 10222 20211 402830211 50002
KOJC 180453Z AUTO 07005KT 10SM SCT044 BKN050 OVC100 21/21 A3005 RMK AO2 SLP165 T02110206
KOJC 180353Z AUTO 07004KT 10SM FEW046 BKN090 BKN110 21/20 A3004 RMK AO2 SLP163 T02110200
KOJC 180253Z AUTO 06008KT 10SM SCT047 SCT060 OVC080 21/20 A3004 RMK AO2 SLP162 60000 T02110200 55005
KOJC 180153Z 10009G17KT 10SM BKN080 OVC100 22/21 A3004 RMK AO2 SLP160 T02170211
KOJC 180053Z 09006KT 10SM OVC100 22/22 A3004 RMK AO2 LTG DSNT E RAE2357 SLP163 P0000 T02220217
KOJC 180024Z 06006KT 10SM FEW055 OVC100 22/22 A3004 RMK AO2 LTG DSNT E AND SE RAE2357 P0000 T02220222
KOJC 172353Z 09008KT 4SM -RA BR FEW019 BKN050 OVC090 22/22 A3006 RMK AO2 LTG DSNT E AND SE SLP168 P0018 60127 T02220222 10283 20217 53004
KOJC 172327Z 08006KT 3SM -RA BR FEW021 BKN046 OVC070 22/22 A3006 RMK AO2 LTG DSNT NE-SE P0012 T02220222
KOJC 172309Z 12010KT 2 1/2SM -RA BR FEW011 BKN035 OVC047 22/21 A3006 RMK AO2 LTG DSNT NE-SE P0008 T02170206
KOJC 172256Z 10013G18KT 1 1/2SM -RA BR FEW006 BKN016 OVC031 22/21 A3006 RMK AO2 LTG DSNT E AND SE P0002 T02170211
KOJC 172253Z 09009KT 1 1/2SM -RA BR FEW006 BKN014 OVC023 22/22 A3007 RMK AO2 PK WND 32037/2221 LTG DSNT E AND SE RAB15 TSB07E52 SLP172 TS MOV E P0109 T02170217
KOJC 172241Z VRB03G16KT 1SM +TSRA BR FEW006 BKN014 OVC025 22/22 A3006 RMK AO2 PK WND 32037/2221 LTG DSNT SE RAB15 TSB07 TS E MOV E P0102 T02220222
KOJC 172237Z VRB04G21KT 2 1/2SM TSRA BR OVC012 23/23 A3006 RMK AO2 PK WND 32037/2221 LTG DSNT SE RAB15 TSB07 PRESRR TS E MOV E P0094 T02280228
KOJC 172233Z 36008G30KT 1/4SM +TSRA BKN009 OVC014 23/23 A3005 RMK AO2 PK WND 32037/2221 LTG DSNT SE RAB15 TSB07 PRESRR TS OHD MOV E P0092 T02280228
KOJC 172225Z 35022G37KT 1/4SM +TSRA BKN011 BKN016 OVC025 23/23 A3001 RMK AO2 PK WND 32037/2221 LTG DSNT SE RAB15 TSB07 TS OHD MOV E P0059 T02330228
KOJC 172220Z 32018G29KT 3/4SM TSRA BR FEW005 BKN015 OVC025 24/23 A2999 RMK AO2 PK WND 34029/2220 LTG DSNT SE RAB15 TSB07 TS OHD MOV E P0027 T02390228
KOJC 172215Z 32010G17KT 2SM TSRA BKN015 BKN023 OVC028 26/23 A3001 RMK AO2 LTG DSNT SE RAB15 TSB07 TS OHD MOV E P0000 T02560228
KOJC 172207Z 36008KT 10SM TS SCT017 OVC026 27/23 A3001 RMK AO2 TSB07 TS NW-SW MOV E T02670228
KOJC 172153Z 02009KT 10SM BKN029 BKN100 OVC120 28/23 A3002 RMK AO2 SLP153 T02780233
KOJC 172124Z 02005KT 10SM SCT044 BKN065 OVC110 28/23 A3004 RMK AO2 T02830233
KOJC 172053Z 36004KT 10SM FEW055 SCT090 BKN110 28/23 A3004 RMK AO2 SLP161 T02830233 55003
KOJC 171953Z 12006KT 10SM FEW070 FEW085 BKN110 28/23 A3004 RMK AO2 SLP159 T02830233
KOJC 171853Z VRB04KT 10SM CLR 28/23 A3005 RMK AO2 SLP163 T02780233
KOJC 171753Z 09005KT 10SM FEW065 27/23 A3005 RMK AO2 SLP164 T02720228 10272 20233 58008
KOJC 171653Z 13004KT 10SM CLR 26/22 A3007 RMK AO2 SLP171 T02560222
KOJC 171553Z 11004KT 10SM CLR 25/22 A3008 RMK AO2 SLP173 T02500217